Terminal Aerodrome Forecast
Issued by NWS

Home | Current Version | Previous Version | Text Only | Print | Product List | Glossary On
Versions: 1 2 3 4 5 6 7 8 9 10 11 12 13 14 15 16 17 18 19 20 21 22 23 24 25 26 27 28 29 30
000
FTUS45 KREV 260523
TAFTVL
TAF
KTVL 260523Z 2606/2706 VRB03KT P6SM FEW050 SCT180
     FM261000 00000KT 6SM BR SCT002 SCT180
     FM261700 04007KT P6SM FEW060 SCT140
     FM262100 18008G14KT P6SM SCT060 BKN140
     FM270100 19006KT P6SM SCT140=

USA.gov is the U.S. government's official web portal to all federal, state and local government web resources and services.